Perronville, MI

1:03 AM CDT on August 20, 2014 (GMT -0500)
Spalding Pine Ave | Change Station
CLOSE
Current Station
Personal Weather Station
Location: Spalding, MI
Elevation: 853 ft
Nearby Weather Stations

Elev 853 ft 45.70 °N, 87.51 °W | Updated 14 seconds ago

Overcast
Overcast
61.5 °F
Feels Like 61.5 °F
N
2.2
Wind Variable Wind from East
Gusts 4.2 mph

Today
High -- | Low -- °F
--% Chance of Precip.
Yesterday
High -- | Low -- °F
Precip. -- in
5:56 AM 7:49 PM
Waning Crescent, 24% visible
Pressure 29.74 in
Visibility 3.0 miles
Clouds Mostly Cloudy 600 ft
Overcast 1400 ft
Dew Point 61 °F
Humidity 99%
Rainfall 0.00 in
Snow Depth Not available.
UV 0 out of 12
Pollen 1.00 out of 12
Ozone Good
PM2.5 Good
Flu Activity Not available.
METAR KESC 200555Z 35003KT 3SM BKN006 OVC014 16/14 A2974 RMK AO1 60001 10190 20160 402200160 52010

More Conditions Fewer Conditions

Pressure 29.74 in
Visibility 3.0 miles
Clouds Mostly Cloudy 600 ft
Overcast 1400 ft
Dew Point 61 °F
Humidity 99%
Rainfall 0.00 in
Snow Depth Not available.
UV 0 out of 12
Pollen 1.00 out of 12
Ozone Good
PM2.5 Good
Flu Activity Not available.
METAR KESC 200555Z 35003KT 3SM BKN006 OVC014 16/14 A2974 RMK AO1 60001 10190 20160 402200160 52010

More Conditions Fewer Conditions

10-Day Weather Forecast

Almanac

Astronomy

Aug. 20, 2014 Rise Set
Actual Time 5:56 AM CDT 7:49 PM CDT
Civil Twilight 5:24 AM CDT 8:21 PM CDT
Nautical Twilight 4:44 AM CDT 9:00 PM CDT
Astronomical Twilight 4:01 AM CDT 9:43 PM CDT
Moon 1:29 AM CDT 4:40 PM CDT
Length of Visible Light 14h 57m
Length of Day
13h 53m
Tomorrow will be 2m 58s shorter.
Waning Crescent, 24% of the Moon is Illuminated
Today
Waning Crescent
Aug 25
New
Sep 2
First Quarter
Sep 8
Full
Sep 15
Last Quarter

Today's Extremes

State Highs State Lows

Community

WunderPhotos

Upload Photos

1,745,592 photos uploaded!

Nearby

Air Quality

  Air Quality AQ Index Pollutant
Yesterday Good
OZONE
Yesterday Good
PM2.5
Current Good
PM2.5
Current Good
OZONE
Wednesday Good
OZONE
Wednesday Good
PM2.5
Thursday Good
OZONE
Thursday Good
PM2.5

Snow Depth

Station Depth Elevation
No new snow has been reported.

Earthquake Activity

City Distance Mag. Time & Date
No recent earthquake activity has been reported nearby.
Minimum magnitude displayed is 2.5.

Coastal Water Temperatures

Place Temperature
Port Inland, MI 60.1 °F

Nearby Weather Stations